createdAt,value
2023-02-04T00:04:07.902Z,70.97
2023-02-04T00:09:07.811Z,71.01
2023-02-04T00:14:07.763Z,71.00
2023-02-04T00:19:07.674Z,70.90
2023-02-04T00:24:07.634Z,70.76
2023-02-04T00:29:07.547Z,70.71
2023-02-04T00:34:07.505Z,70.67
2023-02-04T00:39:07.418Z,70.68
2023-02-04T00:44:07.787Z,70.54
2023-02-04T00:49:07.285Z,70.43
2023-02-04T00:54:07.295Z,70.38
2023-02-04T00:59:07.168Z,70.36
2023-02-04T01:04:07.116Z,70.38
2023-02-04T01:09:29.428Z,70.03
2023-02-04T01:14:21.822Z,70.30
2023-02-04T01:19:21.762Z,70.47
2023-02-04T01:24:21.696Z,70.52
2023-02-04T01:29:21.658Z,70.47
2023-02-04T01:34:21.544Z,70.41
2023-02-04T01:39:21.545Z,70.33
2023-02-04T01:44:21.450Z,70.38
2023-02-04T01:49:21.402Z,70.30
2023-02-04T01:54:21.282Z,70.31
2023-02-04T01:59:21.245Z,70.23
2023-02-04T02:04:21.165Z,70.17
2023-02-04T02:09:21.119Z,70.11
2023-02-04T02:14:21.042Z,70.12
2023-02-04T02:19:20.986Z,70.04
2023-02-04T02:24:20.903Z,69.99
2023-02-04T02:29:20.868Z,70.04
2023-02-04T02:34:20.848Z,70.08
2023-02-04T02:39:20.725Z,70.10
2023-02-04T02:44:20.656Z,70.08
2023-02-04T02:49:20.603Z,70.08
2023-02-04T02:54:20.501Z,70.07
2023-02-04T02:59:20.450Z,70.10
2023-02-04T03:04:20.412Z,70.14
2023-02-04T03:09:20.312Z,70.17
2023-02-04T03:14:20.278Z,70.21
2023-02-04T03:19:20.214Z,70.25
2023-02-04T03:24:20.120Z,70.28
2023-02-04T03:29:20.065Z,70.30
2023-02-04T03:34:20.006Z,70.33
2023-02-04T03:39:19.979Z,70.38
2023-02-04T03:44:19.852Z,70.42
2023-02-04T03:49:19.818Z,70.47
2023-02-04T03:54:19.737Z,70.55
2023-02-04T03:59:19.685Z,70.58
2023-02-04T04:04:19.568Z,70.65
2023-02-04T04:09:19.558Z,70.74
2023-02-04T04:14:19.467Z,70.77
2023-02-04T04:19:19.417Z,70.79
2023-02-04T04:24:19.338Z,70.81
2023-02-04T04:29:19.285Z,70.83
2023-02-04T04:34:19.193Z,70.88
2023-02-04T04:39:19.155Z,70.90
2023-02-04T04:44:19.208Z,70.90
2023-02-04T04:49:19.025Z,70.95
2023-02-04T04:54:18.940Z,70.99
2023-02-04T04:59:18.876Z,71.01
2023-02-04T05:04:18.800Z,71.04
2023-02-04T05:09:18.780Z,71.11
2023-02-04T05:14:18.672Z,71.13
2023-02-04T05:19:34.779Z,70.79
2023-02-04T05:24:27.179Z,71.15
2023-02-04T05:29:27.083Z,71.34
2023-02-04T05:34:27.070Z,71.37
2023-02-04T05:39:26.963Z,71.39
2023-02-04T05:44:27.559Z,71.44
2023-02-04T05:49:26.846Z,71.48
2023-02-04T05:54:26.786Z,71.50
2023-02-04T05:59:26.708Z,71.56
2023-02-04T06:04:26.670Z,71.58
2023-02-04T06:09:26.593Z,71.63
2023-02-04T06:14:26.567Z,71.65
2023-02-04T06:19:26.430Z,71.67
2023-02-04T06:24:26.412Z,71.68
2023-02-04T06:29:26.304Z,71.71
2023-02-04T06:34:26.243Z,71.71
2023-02-04T06:39:26.182Z,71.74
2023-02-04T06:44:26.132Z,71.78
2023-02-04T06:49:26.044Z,71.77
2023-02-04T06:54:26.020Z,71.81
2023-02-04T06:59:26.601Z,71.74
2023-02-04T07:04:25.926Z,71.77
2023-02-04T07:09:25.778Z,71.78
2023-02-04T07:14:25.766Z,71.74
2023-02-04T07:19:25.669Z,71.71
2023-02-04T07:24:25.597Z,71.66
2023-02-04T07:29:26.104Z,71.62
2023-02-04T07:34:25.504Z,71.53
2023-02-04T07:39:25.403Z,71.44
2023-02-04T07:44:25.321Z,71.26
2023-02-04T07:49:25.263Z,71.17
2023-02-04T07:54:25.191Z,71.08
2023-02-04T07:59:25.138Z,70.87
2023-02-04T08:04:25.082Z,70.70
2023-02-04T08:09:25.000Z,70.53
2023-02-04T08:14:24.917Z,70.46
2023-02-04T08:19:24.874Z,70.31
2023-02-04T08:24:24.796Z,70.03
2023-02-04T08:29:24.732Z,70.00
2023-02-04T08:34:24.648Z,69.49
2023-02-04T08:39:24.626Z,68.75
2023-02-04T08:44:24.637Z,67.72
2023-02-04T08:49:24.493Z,67.13
2023-02-04T08:54:24.387Z,67.13
2023-02-04T08:59:24.367Z,67.77
2023-02-04T09:04:24.295Z,68.62
2023-02-04T09:09:26.191Z,68.70
2023-02-04T09:14:24.161Z,68.60
2023-02-04T09:19:24.127Z,68.44
2023-02-04T09:24:24.046Z,68.55
2023-02-04T09:29:23.948Z,68.52
2023-02-04T09:34:23.924Z,68.27
2023-02-04T09:39:23.870Z,68.17
2023-02-04T09:44:23.787Z,67.85
2023-02-04T09:49:23.735Z,66.85
2023-02-04T09:54:24.343Z,64.13
2023-02-04T09:59:23.561Z,64.42
2023-02-04T10:04:23.496Z,63.78
2023-02-04T10:09:23.431Z,62.32
2023-02-04T10:14:23.414Z,61.79
2023-02-04T10:19:23.303Z,62.54
2023-02-04T10:24:23.220Z,63.80
2023-02-04T10:29:23.186Z,64.42
2023-02-04T10:34:23.081Z,64.31
2023-02-04T10:39:23.062Z,64.02
2023-02-04T10:44:22.962Z,63.13
2023-02-04T10:49:22.931Z,61.75
2023-02-04T10:54:22.830Z,62.61
2023-02-04T10:59:22.898Z,64.27
2023-02-04T11:04:22.720Z,64.58
2023-02-04T11:09:22.634Z,64.43
2023-02-04T11:14:22.582Z,64.13
2023-02-04T11:19:22.516Z,55.32
2023-02-04T11:24:22.432Z,52.32
2023-02-04T11:29:22.389Z,56.14
2023-02-04T11:34:22.304Z,57.00
2023-02-04T11:39:22.288Z,53.89
2023-02-04T11:44:22.175Z,56.19
2023-02-04T11:49:22.126Z,56.82
2023-02-04T11:54:22.022Z,56.15
2023-02-04T11:59:21.976Z,56.10
2023-02-04T12:04:21.909Z,56.23
2023-02-04T12:09:21.850Z,58.65
2023-02-04T12:14:21.780Z,60.17
2023-02-04T12:19:21.735Z,61.04
2023-02-04T12:24:21.667Z,61.64
2023-02-04T12:29:21.589Z,61.86
2023-02-04T12:34:21.518Z,61.79
2023-02-04T12:39:21.469Z,48.18
2023-02-04T12:44:21.364Z,48.26
2023-02-04T12:49:21.325Z,53.40
2023-02-04T12:54:21.249Z,56.49
2023-02-04T12:59:21.201Z,57.37
2023-02-04T13:04:21.095Z,57.36
2023-02-04T13:09:21.051Z,56.53
2023-02-04T13:14:20.968Z,56.65
2023-02-04T13:19:20.928Z,56.70
2023-02-04T13:24:20.828Z,56.87
2023-02-04T13:29:20.779Z,57.05
2023-02-04T13:34:20.781Z,57.49
2023-02-04T13:39:20.645Z,57.83
2023-02-04T13:44:20.568Z,58.44
2023-02-04T13:49:20.522Z,58.84
2023-02-04T13:54:20.480Z,59.14
2023-02-04T13:59:21.134Z,59.57
2023-02-04T14:04:20.305Z,59.85
2023-02-04T14:09:20.259Z,59.93
2023-02-04T14:14:20.190Z,59.98
2023-02-04T14:19:20.139Z,60.04
2023-02-04T14:24:20.030Z,60.31
2023-02-04T14:29:20.008Z,60.58
2023-02-04T14:34:19.917Z,60.77
2023-02-04T14:39:21.155Z,61.09
2023-02-04T14:44:19.789Z,61.15
2023-02-04T14:49:19.732Z,60.92
2023-02-04T14:54:19.637Z,60.65
2023-02-04T14:59:19.664Z,60.58
2023-02-04T15:04:19.489Z,60.70
2023-02-04T15:09:19.465Z,60.86
2023-02-04T15:14:19.376Z,61.14
2023-02-04T15:19:19.320Z,61.16
2023-02-04T15:24:19.243Z,61.38
2023-02-04T15:29:19.209Z,61.73
2023-02-04T15:34:19.110Z,62.11
2023-02-04T15:39:19.040Z,62.47
2023-02-04T15:44:18.977Z,62.65
2023-02-04T15:49:18.928Z,62.87
2023-02-04T15:54:18.873Z,63.02
2023-02-04T15:59:18.807Z,63.25
2023-02-04T16:04:20.777Z,63.46
2023-02-04T16:09:18.670Z,63.62
2023-02-04T16:14:18.577Z,63.80
2023-02-04T16:19:18.572Z,63.99
2023-02-04T16:24:18.522Z,64.18
2023-02-04T16:29:18.421Z,64.33
2023-02-04T16:34:18.322Z,64.50
2023-02-04T16:39:18.294Z,64.63
2023-02-04T16:44:18.188Z,64.77
2023-02-04T16:49:18.134Z,64.93
2023-02-04T16:54:18.076Z,65.06
2023-02-04T16:59:18.006Z,65.17
2023-02-04T17:04:17.987Z,65.29
2023-02-04T17:09:17.885Z,65.35
2023-02-04T17:14:17.899Z,65.47
2023-02-04T17:19:17.757Z,65.53
2023-02-04T17:24:17.669Z,65.60
2023-02-04T17:29:17.615Z,65.67
2023-02-04T17:34:17.533Z,65.74
2023-02-04T17:39:17.492Z,65.85
2023-02-04T17:44:17.412Z,65.96
2023-02-04T17:49:17.353Z,66.06
2023-02-04T17:54:17.268Z,66.16
2023-02-04T17:59:17.231Z,66.25
2023-02-04T18:04:17.139Z,66.31
2023-02-04T18:09:17.136Z,66.35
2023-02-04T18:14:17.031Z,66.42
2023-02-04T18:19:16.992Z,66.45
2023-02-04T18:24:16.906Z,66.50
2023-02-04T18:29:16.860Z,66.54
2023-02-04T18:34:16.800Z,66.61
2023-02-04T18:39:16.687Z,66.67
2023-02-04T18:44:16.625Z,66.72
2023-02-04T18:49:16.662Z,66.76
2023-02-04T18:54:17.032Z,66.86
2023-02-04T18:59:17.016Z,66.97
2023-02-04T19:04:16.346Z,67.05
2023-02-04T19:09:16.988Z,67.12
2023-02-04T19:14:16.728Z,67.22
2023-02-04T19:19:16.673Z,67.27
2023-02-04T19:24:16.476Z,67.28
2023-02-04T19:29:16.893Z,67.33
2023-02-04T19:34:16.260Z,67.41
2023-02-04T19:39:16.812Z,67.56
2023-02-04T19:44:16.241Z,67.66
2023-02-04T19:49:15.764Z,67.69
2023-02-04T19:54:15.754Z,67.71
2023-02-04T19:59:15.650Z,67.72
2023-02-04T20:04:15.570Z,67.71
2023-02-04T20:09:15.542Z,67.72
2023-02-04T20:14:15.522Z,67.76
2023-02-04T20:19:15.397Z,67.79
2023-02-04T20:24:15.316Z,67.84
2023-02-04T20:29:15.271Z,67.84
2023-02-04T20:34:15.149Z,67.88
2023-02-04T20:39:15.170Z,67.93
2023-02-04T20:44:15.007Z,68.00
2023-02-04T20:49:14.980Z,68.05
2023-02-04T20:54:14.893Z,68.13
2023-02-04T20:59:14.970Z,68.19
2023-02-04T21:04:14.787Z,68.19
2023-02-04T21:09:14.712Z,68.16
2023-02-04T21:14:14.634Z,68.14
2023-02-04T21:19:14.617Z,68.12
2023-02-04T21:24:14.523Z,68.10
2023-02-04T21:29:14.437Z,68.10
2023-02-04T21:34:14.469Z,68.10
2023-02-04T21:39:14.325Z,68.13
2023-02-04T21:44:14.248Z,68.16
2023-02-04T21:49:14.200Z,68.21
2023-02-04T21:54:14.107Z,68.26
2023-02-04T21:59:14.073Z,68.31
2023-02-04T22:04:14.083Z,68.35
2023-02-04T22:09:13.951Z,68.41
2023-02-04T22:14:13.865Z,68.42
2023-02-04T22:19:13.785Z,68.43
2023-02-04T22:24:14.086Z,68.44
2023-02-04T22:29:13.663Z,68.48
2023-02-04T22:34:13.578Z,68.56
2023-02-04T22:39:13.545Z,68.67
2023-02-04T22:44:13.545Z,68.74
2023-02-04T22:49:13.469Z,68.77
2023-02-04T22:54:13.342Z,68.81
2023-02-04T22:59:13.298Z,68.87
2023-02-04T23:04:13.612Z,68.97
2023-02-04T23:09:13.124Z,69.03
2023-02-04T23:14:13.032Z,69.06
2023-02-04T23:19:13.053Z,69.08
2023-02-04T23:24:12.933Z,69.12
2023-02-04T23:29:12.892Z,69.16
2023-02-04T23:34:12.812Z,69.23
2023-02-04T23:39:12.766Z,69.28
2023-02-04T23:44:12.804Z,69.32
2023-02-04T23:49:12.652Z,69.36
2023-02-04T23:54:12.571Z,69.38
2023-02-04T23:59:12.481Z,69.39
